Time;durP1;ratioP1;P1;durP2;ratioP2;P2;SDS_P1;SDS_P2;PMS_P1;PMS_P2;Temp;Humidity;BMP_temperature;BMP_pressure;BME280_temperature;BME280_humidity;BME280_pressure;Samples;Min_cycle;Max_cycle;Signal;HPM_P1;HPM_P2
2021/12/08 00:00:25;;;;;;;2.97;1.38;;;;;;;;;;5043404;28;20469;-73
2021/12/08 00:02:55;;;;;;;4.68;1.55;;;;;;;;;;5051850;28;20155;-73
2021/12/08 00:05:24;;;;;;;3.15;0.90;;;;;;;;;;5050087;28;20522;-73
2021/12/08 00:07:53;;;;;;;6.07;1.70;;;;;;;;;;5049909;28;20490;-74
2021/12/08 00:10:51;;;;;;;3.43;1.63;;;;;;;;;;5039199;28;20135;-72
2021/12/08 00:13:18;;;;;;;4.03;1.60;;;;;;;;;;5037449;28;20411;-73
2021/12/08 00:15:53;;;;;;;3.53;1.80;;;;;;;;;;5057597;28;20053;-74
2021/12/08 00:18:26;;;;;;;3.35;1.10;;;;;;;;;;5055552;28;20055;-73
2021/12/08 00:20:59;;;;;;;4.97;1.77;;;;;;;;;;5060930;28;20055;-73
2021/12/08 00:23:31;;;;;;;2.87;1.20;;;;;;;;;;5054213;28;20559;-73
2021/12/08 00:26:00;;;;;;;3.05;1.48;;;;;;;;;;5036776;28;20083;-73
2021/12/08 00:28:29;;;;;;;8.05;2.28;;;;;;;;;;5059847;28;20040;-73
2021/12/08 00:31:00;;;;;;;7.07;3.17;;;;;;;;;;5057791;28;20106;-73
2021/12/08 00:33:31;;;;;;;5.72;2.83;;;;;;;;;;5057943;28;20466;-73
2021/12/08 00:36:02;;;;;;;6.77;2.33;;;;;;;;;;5073196;28;20072;-73
2021/12/08 00:38:32;;;;;;;4.35;2.47;;;;;;;;;;5057951;28;20130;-72
2021/12/08 00:41:01;;;;;;;6.10;2.35;;;;;;;;;;5050872;28;20131;-73
2021/12/08 00:43:31;;;;;;;5.38;1.70;;;;;;;;;;5056312;28;20061;-73
2021/12/08 00:46:00;;;;;;;5.88;1.88;;;;;;;;;;5053242;28;20049;-73
2021/12/08 00:48:28;;;;;;;3.67;1.73;;;;;;;;;;5047170;28;20192;-73
2021/12/08 00:50:57;;;;;;;5.07;2.13;;;;;;;;;;5055450;28;20517;-72
2021/12/08 00:53:25;;;;;;;5.82;2.65;;;;;;;;;;5060429;28;20430;-72
2021/12/08 00:55:55;;;;;;;5.15;2.17;;;;;;;;;;5037411;28;20505;-73
2021/12/08 00:58:24;;;;;;;4.57;1.90;;;;;;;;;;5035080;28;20491;-73
2021/12/08 01:01:18;;;;;;;8.37;2.63;;;;;;;;;;5052282;28;20503;-73
2021/12/08 01:03:47;;;;;;;9.13;3.03;;;;;;;;;;5058601;28;20060;-72
2021/12/08 01:06:17;;;;;;;6.95;3.08;;;;;;;;;;5055960;28;20053;-72
2021/12/08 01:08:46;;;;;;;5.07;2.38;;;;;;;;;;5056569;28;20045;-72
2021/12/08 01:11:17;;;;;;;6.10;2.38;;;;;;;;;;5050110;28;20132;-72
2021/12/08 01:13:46;;;;;;;9.70;2.00;;;;;;;;;;5072743;28;20071;-73
2021/12/08 01:16:16;;;;;;;7.10;2.70;;;;;;;;;;5049657;28;20085;-73
2021/12/08 01:18:46;;;;;;;4.40;2.40;;;;;;;;;;5052307;28;20060;-73
2021/12/08 01:21:17;;;;;;;7.60;3.35;;;;;;;;;;5055654;28;20049;-73
2021/12/08 01:23:47;;;;;;;4.70;2.30;;;;;;;;;;5041813;28;20056;-73
2021/12/08 01:26:17;;;;;;;6.10;2.53;;;;;;;;;;5052150;28;20436;-72
2021/12/08 01:28:50;;;;;;;6.43;2.67;;;;;;;;;;5069250;28;20049;-72
2021/12/08 01:31:19;;;;;;;9.60;3.92;;;;;;;;;;5057282;28;20041;-73
2021/12/08 01:33:48;;;;;;;4.07;2.13;;;;;;;;;;5037421;28;20079;-73
2021/12/08 01:36:42;;;;;;;4.05;1.33;;;;;;;;;;5074379;28;20384;-73
2021/12/08 01:39:35;;;;;;;8.80;3.17;;;;;;;;;;5054809;28;20055;-72
2021/12/08 01:42:15;;;;;;;3.55;2.13;;;;;;;;;;5054603;28;20063;-72
2021/12/08 01:47:32;;;;;;;10.07;3.08;;;;;;;;;;5053185;28;20045;-73
2021/12/08 01:50:01;;;;;;;7.93;2.60;;;;;;;;;;5038966;28;20386;-73
2021/12/08 01:52:30;;;;;;;5.40;2.53;;;;;;;;;;5043353;28;20499;-73
2021/12/08 01:54:58;;;;;;;5.85;2.40;;;;;;;;;;5036185;28;20057;-73
2021/12/08 01:57:28;;;;;;;6.63;3.35;;;;;;;;;;5072508;28;20051;-72
2021/12/08 01:59:56;;;;;;;5.97;2.97;;;;;;;;;;5029064;28;20049;-73
2021/12/08 02:02:25;;;;;;;6.72;2.75;;;;;;;;;;5035165;28;20045;-73
2021/12/08 02:04:54;;;;;;;6.30;2.23;;;;;;;;;;5055339;28;20044;-73
2021/12/08 02:07:23;;;;;;;4.30;2.42;;;;;;;;;;5073220;28;20049;-73
2021/12/08 02:09:52;;;;;;;5.20;2.40;;;;;;;;;;5038125;28;20461;-73
2021/12/08 02:12:21;;;;;;;6.40;2.70;;;;;;;;;;5052621;28;20045;-73
2021/12/08 02:14:50;;;;;;;7.45;2.50;;;;;;;;;;5055305;28;20056;-73
2021/12/08 02:17:25;;;;;;;4.47;2.20;;;;;;;;;;5051880;28;20049;-73
2021/12/08 02:19:55;;;;;;;5.82;2.88;;;;;;;;;;5051513;28;20037;-74
2021/12/08 02:22:25;;;;;;;3.75;1.63;;;;;;;;;;5051360;28;20049;-73
2021/12/08 02:24:55;;;;;;;5.80;2.30;;;;;;;;;;5054309;28;20079;-73
2021/12/08 02:27:25;;;;;;;4.25;1.83;;;;;;;;;;5056769;28;20060;-73
2021/12/08 02:29:58;;;;;;;4.20;1.77;;;;;;;;;;5054142;28;20040;-73
2021/12/08 02:47:03;;;;;;;3.92;1.67;;;;;;;;;;5067398;28;20406;-73
2021/12/08 02:49:32;;;;;;;6.32;2.40;;;;;;;;;;5055370;28;20499;-72
2021/12/08 02:52:01;;;;;;;5.55;1.98;;;;;;;;;;5053315;28;20053;-72
2021/12/08 02:54:35;;;;;;;2.83;1.15;;;;;;;;;;5055587;28;20081;-73
2021/12/08 02:57:04;;;;;;;1.67;0.60;;;;;;;;;;5053058;28;20052;-73
2021/12/08 02:59:33;;;;;;;3.00;1.63;;;;;;;;;;5051358;28;20107;-73
2021/12/08 03:02:02;;;;;;;2.92;1.15;;;;;;;;;;5053845;28;20666;-73
2021/12/08 03:04:32;;;;;;;2.97;1.35;;;;;;;;;;5072041;28;20436;-72
2021/12/08 03:07:01;;;;;;;5.38;1.70;;;;;;;;;;5055823;28;20048;-72
2021/12/08 03:09:29;;;;;;;6.63;1.57;;;;;;;;;;5046473;28;20064;-73
2021/12/08 03:12:00;;;;;;;4.28;1.65;;;;;;;;;;5052318;28;20487;-72
2021/12/08 03:14:30;;;;;;;4.10;1.38;;;;;;;;;;5045529;28;20168;-73
2021/12/08 03:17:00;;;;;;;2.78;1.30;;;;;;;;;;5054217;28;20060;-73
2021/12/08 03:19:30;;;;;;;3.22;0.90;;;;;;;;;;5052944;28;20521;-73
2021/12/08 03:22:02;;;;;;;2.77;1.40;;;;;;;;;;5053255;28;20135;-73
2021/12/08 03:24:35;;;;;;;3.33;1.60;;;;;;;;;;5045442;28;20056;-73
2021/12/08 03:27:10;;;;;;;3.40;1.58;;;;;;;;;;5035552;28;20115;-73
2021/12/08 03:29:46;;;;;;;3.28;1.50;;;;;;;;;;5054085;28;20099;-74
2021/12/08 03:32:18;;;;;;;3.78;1.80;;;;;;;;;;5050770;28;20898;-73
2021/12/08 03:34:51;;;;;;;4.70;1.57;;;;;;;;;;5053715;28;20045;-73
2021/12/08 03:37:21;;;;;;;2.85;1.08;;;;;;;;;;5042181;28;20056;-73
2021/12/08 03:39:50;;;;;;;3.58;1.45;;;;;;;;;;5055745;28;20041;-72
2021/12/08 03:42:22;;;;;;;2.85;1.08;;;;;;;;;;5055536;28;20041;-73
2021/12/08 03:44:54;;;;;;;3.60;1.83;;;;;;;;;;5033083;28;20061;-73
2021/12/08 03:47:27;;;;;;;3.57;1.93;;;;;;;;;;5051845;28;20087;-73
2021/12/08 03:49:58;;;;;;;4.07;1.40;;;;;;;;;;5049526;28;20045;-73
2021/12/08 03:52:27;;;;;;;3.75;1.67;;;;;;;;;;5047448;28;20118;-73
2021/12/08 03:54:56;;;;;;;2.70;1.27;;;;;;;;;;5053612;28;20049;-73
2021/12/08 03:57:26;;;;;;;3.10;1.70;;;;;;;;;;5053353;28;20503;-73
2021/12/08 03:59:54;;;;;;;3.83;2.00;;;;;;;;;;5034298;28;20052;-74
2021/12/08 04:02:23;;;;;;;4.75;1.35;;;;;;;;;;5071263;28;20154;-73
2021/12/08 04:04:51;;;;;;;4.28;1.55;;;;;;;;;;5049662;28;20071;-73
2021/12/08 04:07:20;;;;;;;4.50;1.60;;;;;;;;;;5051980;28;20072;-72
2021/12/08 04:09:50;;;;;;;7.72;1.52;;;;;;;;;;5053811;28;20060;-73
2021/12/08 04:12:22;;;;;;;7.53;2.27;;;;;;;;;;5054039;28;20057;-74
2021/12/08 04:14:55;;;;;;;4.85;1.83;;;;;;;;;;5052759;28;20041;-73
2021/12/08 04:17:25;;;;;;;5.53;2.10;;;;;;;;;;5051450;28;20056;-72
2021/12/08 04:19:56;;;;;;;5.85;1.58;;;;;;;;;;5035243;28;20056;-73
2021/12/08 04:22:26;;;;;;;7.72;1.40;;;;;;;;;;5052598;28;20075;-73
2021/12/08 04:24:55;;;;;;;4.17;1.30;;;;;;;;;;5052424;28;20446;-73
2021/12/08 04:27:26;;;;;;;5.28;1.50;;;;;;;;;;5054960;28;20139;-73
2021/12/08 04:29:56;;;;;;;5.00;1.80;;;;;;;;;;5052478;28;20711;-73
2021/12/08 04:32:51;;;;;;;5.88;2.13;;;;;;;;;;5070002;28;20053;-73
2021/12/08 04:35:22;;;;;;;5.55;1.67;;;;;;;;;;5053331;28;20049;-73
2021/12/08 04:40:57;;;;;;;3.88;1.70;;;;;;;;;;5053166;28;20055;-73
2021/12/08 04:43:32;;;;;;;3.63;1.50;;;;;;;;;;5028365;28;20061;-73
2021/12/08 04:46:16;;;;;;;3.10;1.25;;;;;;;;;;5035245;28;20052;-73
2021/12/08 04:51:44;;;;;;;3.17;1.33;;;;;;;;;;5042797;28;20049;-72
2021/12/08 05:03:16;;;;;;;3.35;1.25;;;;;;;;;;5054400;28;20052;-74
2021/12/08 05:06:04;;;;;;;3.03;1.67;;;;;;;;;;5048799;28;20055;-73
2021/12/08 05:08:41;;;;;;;3.75;1.80;;;;;;;;;;5056293;28;20053;-73
2021/12/08 05:11:13;;;;;;;3.20;1.00;;;;;;;;;;5054113;28;20041;-74
2021/12/08 05:13:43;;;;;;;3.22;1.67;;;;;;;;;;5055068;28;20381;-74
2021/12/08 05:16:13;;;;;;;5.05;1.85;;;;;;;;;;5051434;28;20507;-74
2021/12/08 05:18:45;;;;;;;5.00;1.77;;;;;;;;;;5048467;28;20068;-73
2021/12/08 05:21:16;;;;;;;3.65;1.60;;;;;;;;;;5049779;28;20076;-74
2021/12/08 05:23:47;;;;;;;4.22;1.75;;;;;;;;;;5053381;28;20045;-73
2021/12/08 05:26:18;;;;;;;3.88;1.77;;;;;;;;;;5054439;28;20391;-74
2021/12/08 05:28:48;;;;;;;3.78;1.10;;;;;;;;;;5054275;28;20056;-73
2021/12/08 05:31:19;;;;;;;3.63;1.53;;;;;;;;;;5045988;28;20046;-74
2021/12/08 05:34:14;;;;;;;8.05;2.30;;;;;;;;;;5052573;28;20085;-74
2021/12/08 05:36:43;;;;;;;6.30;2.08;;;;;;;;;;5052755;28;20049;-73
2021/12/08 05:39:14;;;;;;;5.60;1.83;;;;;;;;;;5052959;28;20499;-74
2021/12/08 05:42:13;;;;;;;4.63;2.33;;;;;;;;;;5053195;28;20031;-80
2021/12/08 05:44:43;;;;;;;5.80;2.10;;;;;;;;;;5061203;28;20056;-75
2021/12/08 05:47:13;;;;;;;6.25;1.65;;;;;;;;;;5059950;28;20574;-74
2021/12/08 05:49:44;;;;;;;7.35;2.70;;;;;;;;;;5066508;28;20139;-74
2021/12/08 05:52:15;;;;;;;4.22;2.30;;;;;;;;;;5037021;28;20072;-78
2021/12/08 05:54:45;;;;;;;5.18;1.85;;;;;;;;;;5065592;28;20020;-80
2021/12/08 05:57:15;;;;;;;3.87;1.90;;;;;;;;;;5063826;28;20048;-75
2021/12/08 05:59:49;;;;;;;5.45;2.53;;;;;;;;;;5056454;28;20049;-77
2021/12/08 06:02:20;;;;;;;5.18;2.13;;;;;;;;;;5052181;28;20053;-74
2021/12/08 06:04:51;;;;;;;3.63;1.55;;;;;;;;;;5062721;28;20056;-77
2021/12/08 06:07:21;;;;;;;6.45;1.95;;;;;;;;;;5056674;28;20048;-75
2021/12/08 06:09:50;;;;;;;4.17;2.03;;;;;;;;;;5051155;28;20080;-75
2021/12/08 06:12:20;;;;;;;7.43;2.22;;;;;;;;;;5055953;28;20045;-71
2021/12/08 06:14:54;;;;;;;4.65;1.80;;;;;;;;;;5054000;28;20053;-70
2021/12/08 06:17:26;;;;;;;3.75;1.30;;;;;;;;;;5061046;28;20048;-71
2021/12/08 06:19:57;;;;;;;4.18;2.10;;;;;;;;;;5053359;28;20053;-71
2021/12/08 06:22:27;;;;;;;6.80;2.00;;;;;;;;;;5045782;28;20414;-71
2021/12/08 06:24:56;;;;;;;3.65;1.65;;;;;;;;;;5054435;28;20041;-71
2021/12/08 06:27:28;;;;;;;5.25;2.08;;;;;;;;;;5048012;28;20053;-71
2021/12/08 06:29:56;;;;;;;4.78;2.40;;;;;;;;;;5035794;28;20422;-71
2021/12/08 06:32:49;;;;;;;4.97;2.13;;;;;;;;;;5047297;28;20144;-71
2021/12/08 06:35:22;;;;;;;5.37;2.23;;;;;;;;;;5054371;28;20419;-71
2021/12/08 06:37:52;;;;;;;3.90;1.55;;;;;;;;;;5063920;28;20049;-71
2021/12/08 06:40:24;;;;;;;5.05;2.33;;;;;;;;;;5061310;28;20049;-71
2021/12/08 06:42:54;;;;;;;4.75;2.05;;;;;;;;;;5061022;28;20410;-71
2021/12/08 06:45:24;;;;;;;4.60;1.70;;;;;;;;;;5066061;28;20052;-72
2021/12/08 06:47:55;;;;;;;5.93;2.40;;;;;;;;;;5068905;28;20045;-71
2021/12/08 06:50:28;;;;;;;6.45;3.13;;;;;;;;;;5050321;28;20514;-71
2021/12/08 06:52:58;;;;;;;3.78;2.30;;;;;;;;;;5031579;28;20041;-71
2021/12/08 06:55:28;;;;;;;3.45;1.90;;;;;;;;;;5064674;28;20045;-71
2021/12/08 06:57:58;;;;;;;6.95;2.10;;;;;;;;;;5062950;28;20491;-71
2021/12/08 07:00:45;;;;;;;3.93;2.40;;;;;;;;;;5075148;28;20056;-72
2021/12/08 07:03:31;;;;;;;6.28;2.45;;;;;;;;;;5040607;28;20082;-71
2021/12/08 07:06:09;;;;;;;6.15;2.83;;;;;;;;;;5069353;28;20048;-71
2021/12/08 07:08:40;;;;;;;6.85;2.33;;;;;;;;;;5069448;28;20419;-71
2021/12/08 07:11:13;;;;;;;8.15;3.70;;;;;;;;;;5035261;28;20063;-71
2021/12/08 07:13:42;;;;;;;10.97;2.70;;;;;;;;;;5052592;28;20037;-71
2021/12/08 07:16:29;;;;;;;6.50;2.75;;;;;;;;;;5054498;28;20135;-74
2021/12/08 07:19:03;;;;;;;4.75;2.88;;;;;;;;;;5058201;28;20055;-71
2021/12/08 07:21:34;;;;;;;8.00;2.42;;;;;;;;;;5056450;28;20467;-71
2021/12/08 07:24:06;;;;;;;4.97;1.92;;;;;;;;;;5054332;28;20040;-71
2021/12/08 07:26:36;;;;;;;5.63;2.73;;;;;;;;;;5032779;28;20136;-71
2021/12/08 07:29:05;;;;;;;6.03;2.83;;;;;;;;;;5060247;28;20095;-71
2021/12/08 07:31:36;;;;;;;5.80;2.38;;;;;;;;;;5064707;28;20482;-71
2021/12/08 07:34:07;;;;;;;6.88;3.10;;;;;;;;;;5058840;28;20047;-71
2021/12/08 07:36:39;;;;;;;8.32;3.58;;;;;;;;;;5058230;28;20041;-71
2021/12/08 07:39:10;;;;;;;5.43;2.10;;;;;;;;;;5064867;28;20075;-70
2021/12/08 07:41:40;;;;;;;3.78;2.40;;;;;;;;;;5040926;28;20053;-71
2021/12/08 07:44:11;;;;;;;6.80;2.50;;;;;;;;;;5061504;28;20044;-71
2021/12/08 07:46:41;;;;;;;6.25;2.60;;;;;;;;;;5063187;28;20490;-71
2021/12/08 07:49:10;;;;;;;10.65;2.85;;;;;;;;;;5046518;28;20553;-71
2021/12/08 07:51:42;;;;;;;6.27;3.13;;;;;;;;;;5046440;28;20052;-71
2021/12/08 07:54:11;;;;;;;6.43;2.30;;;;;;;;;;5060766;28;20045;-71
2021/12/08 07:56:43;;;;;;;6.47;2.75;;;;;;;;;;5039704;28;20053;-71
2021/12/08 07:59:13;;;;;;;5.22;2.58;;;;;;;;;;5044081;28;20512;-71
2021/12/08 08:01:45;;;;;;;4.15;1.77;;;;;;;;;;5064784;28;20093;-71
2021/12/08 08:04:16;;;;;;;8.77;2.50;;;;;;;;;;5054147;28;20055;-71
2021/12/08 08:06:47;;;;;;;6.10;2.88;;;;;;;;;;5035760;28;20132;-71
2021/12/08 08:09:18;;;;;;;5.40;2.20;;;;;;;;;;5057600;28;20181;-71
2021/12/08 08:11:54;;;;;;;8.07;3.15;;;;;;;;;;5047462;28;20041;-71
2021/12/08 08:14:25;;;;;;;12.05;2.67;;;;;;;;;;5044710;28;20053;-71
2021/12/08 08:16:56;;;;;;;6.53;2.90;;;;;;;;;;5050910;28;20136;-71
2021/12/08 08:19:29;;;;;;;6.50;2.55;;;;;;;;;;5051770;28;20068;-71
2021/12/08 08:22:01;;;;;;;5.95;3.25;;;;;;;;;;5046925;28;20044;-71
2021/12/08 08:24:30;;;;;;;6.32;2.35;;;;;;;;;;5058550;28;20068;-72
2021/12/08 08:27:01;;;;;;;6.20;2.95;;;;;;;;;;5057209;28;20048;-71
2021/12/08 08:29:29;;;;;;;6.30;2.17;;;;;;;;;;5033914;28;20053;-71
2021/12/08 08:32:00;;;;;;;4.95;2.65;;;;;;;;;;5060442;28;20048;-71
2021/12/08 08:34:33;;;;;;;7.90;3.45;;;;;;;;;;5063084;28;20053;-71
2021/12/08 08:37:04;;;;;;;5.45;2.65;;;;;;;;;;5049969;28;20052;-71
2021/12/08 08:39:58;;;;;;;5.65;2.53;;;;;;;;;;5049674;28;20502;-71
2021/12/08 08:42:29;;;;;;;5.27;2.67;;;;;;;;;;5061700;28;20059;-71
2021/12/08 08:45:00;;;;;;;5.80;2.15;;;;;;;;;;5064530;28;20049;-71
2021/12/08 08:47:31;;;;;;;13.32;2.67;;;;;;;;;;5061234;28;20075;-71
2021/12/08 08:50:00;;;;;;;10.90;3.50;;;;;;;;;;5057804;28;20120;-71
2021/12/08 08:52:31;;;;;;;9.57;2.67;;;;;;;;;;5064612;28;20055;-71
2021/12/08 08:55:01;;;;;;;9.13;3.33;;;;;;;;;;5050426;28;20519;-71
2021/12/08 08:57:33;;;;;;;5.88;2.75;;;;;;;;;;5037421;28;20053;-71
2021/12/08 09:00:07;;;;;;;5.63;2.75;;;;;;;;;;5032433;28;20053;-71
2021/12/08 09:02:38;;;;;;;9.57;2.90;;;;;;;;;;5056705;28;20052;-71
2021/12/08 09:05:09;;;;;;;8.25;2.85;;;;;;;;;;5053765;28;20041;-71
2021/12/08 09:07:41;;;;;;;8.17;3.67;;;;;;;;;;5058667;28;20044;-71
2021/12/08 09:10:11;;;;;;;9.52;3.95;;;;;;;;;;5045286;28;20049;-71
2021/12/08 09:12:45;;;;;;;7.65;3.33;;;;;;;;;;5052546;28;20453;-71
2021/12/08 09:15:41;;;;;;;7.20;2.70;;;;;;;;;;5052855;28;20542;-71
2021/12/08 09:18:12;;;;;;;4.53;2.33;;;;;;;;;;5055306;28;20445;-71
2021/12/08 09:20:44;;;;;;;7.77;3.23;;;;;;;;;;5055539;28;20052;-71
2021/12/08 09:23:16;;;;;;;7.80;3.28;;;;;;;;;;5047532;28;20052;-71
2021/12/08 09:25:49;;;;;;;12.68;2.85;;;;;;;;;;5044159;28;20415;-73
2021/12/08 09:28:21;;;;;;;6.38;3.42;;;;;;;;;;5057546;28;20040;-71
2021/12/08 09:30:51;;;;;;;8.55;3.20;;;;;;;;;;5057465;28;20061;-71
2021/12/08 09:33:25;;;;;;;6.00;2.90;;;;;;;;;;5054938;28;20091;-71
2021/12/08 09:35:56;;;;;;;4.93;2.83;;;;;;;;;;5056112;28;20037;-71
2021/12/08 09:38:28;;;;;;;7.50;3.15;;;;;;;;;;5057775;28;20118;-71
2021/12/08 09:41:00;;;;;;;7.63;3.35;;;;;;;;;;5056474;28;20080;-72
2021/12/08 09:43:33;;;;;;;5.88;3.50;;;;;;;;;;5053331;28;20056;-71
2021/12/08 09:46:04;;;;;;;7.47;3.20;;;;;;;;;;5055593;28;20522;-71
2021/12/08 09:48:35;;;;;;;6.22;2.65;;;;;;;;;;5052276;28;20108;-71
2021/12/08 09:51:04;;;;;;;6.13;2.95;;;;;;;;;;5058666;28;20055;-71
2021/12/08 09:53:36;;;;;;;12.05;3.22;;;;;;;;;;5055569;28;20053;-71
2021/12/08 09:56:09;;;;;;;7.90;3.50;;;;;;;;;;5052749;28;20052;-71
2021/12/08 09:58:39;;;;;;;8.90;3.60;;;;;;;;;;5043741;28;20041;-71
2021/12/08 10:01:15;;;;;;;7.60;2.70;;;;;;;;;;5055738;28;20045;-71
2021/12/08 10:03:44;;;;;;;8.90;3.83;;;;;;;;;;5048311;28;20053;-71
2021/12/08 10:06:14;;;;;;;8.65;4.30;;;;;;;;;;5054431;28;20053;-71
2021/12/08 10:08:45;;;;;;;8.10;3.33;;;;;;;;;;5056629;28;20045;-71
2021/12/08 10:11:14;;;;;;;6.00;2.73;;;;;;;;;;5053926;28;20076;-71
2021/12/08 10:13:45;;;;;;;8.52;3.67;;;;;;;;;;5055240;28;20411;-71
2021/12/08 10:16:14;;;;;;;6.15;3.22;;;;;;;;;;5055227;28;20132;-71
2021/12/08 10:18:44;;;;;;;6.20;3.35;;;;;;;;;;5052426;28;20091;-71
2021/12/08 10:21:14;;;;;;;4.82;2.67;;;;;;;;;;5054311;28;20364;-71
2021/12/08 10:23:45;;;;;;;8.00;3.23;;;;;;;;;;5056862;28;20044;-71
2021/12/08 10:26:15;;;;;;;6.85;2.78;;;;;;;;;;5039218;28;20049;-71
2021/12/08 10:28:44;;;;;;;7.60;3.25;;;;;;;;;;5046559;28;20128;-71
2021/12/08 10:31:15;;;;;;;6.65;3.70;;;;;;;;;;5054511;28;20045;-71
2021/12/08 10:33:58;;;;;;;6.40;2.97;;;;;;;;;;5034111;28;20057;-71
2021/12/08 10:36:45;;;;;;;7.07;2.70;;;;;;;;;;5049239;28;20483;-71
2021/12/08 10:39:17;;;;;;;6.30;2.63;;;;;;;;;;5053951;28;20044;-71
2021/12/08 10:42:14;;;;;;;5.40;2.90;;;;;;;;;;5073373;28;20132;-71
2021/12/08 10:44:52;;;;;;;6.60;3.40;;;;;;;;;;5054404;28;20055;-71
2021/12/08 10:47:27;;;;;;;8.38;3.42;;;;;;;;;;5068582;28;20063;-71
2021/12/08 10:55:40;;;;;;;7.95;3.20;;;;;;;;;;5051793;28;20080;-71
2021/12/08 10:58:09;;;;;;;11.23;3.53;;;;;;;;;;5069862;28;20049;-71
2021/12/08 11:00:39;;;;;;;8.32;3.72;;;;;;;;;;5055694;28;20505;-72
2021/12/08 11:03:08;;;;;;;7.87;3.67;;;;;;;;;;5036823;28;20379;-71
2021/12/08 11:05:42;;;;;;;8.55;3.35;;;;;;;;;;5034682;28;20041;-73
2021/12/08 11:08:16;;;;;;;10.07;3.35;;;;;;;;;;5053124;28;20043;-72
2021/12/08 11:10:49;;;;;;;6.82;3.13;;;;;;;;;;5052572;28;20037;-70
2021/12/08 11:13:18;;;;;;;9.82;3.72;;;;;;;;;;5037060;28;20041;-72
2021/12/08 11:15:48;;;;;;;7.37;3.70;;;;;;;;;;5049598;28;20037;-74
2021/12/08 11:18:18;;;;;;;10.48;3.55;;;;;;;;;;5024885;28;20079;-71
2021/12/08 11:20:50;;;;;;;9.25;4.13;;;;;;;;;;5032838;28;20037;-71
2021/12/08 11:23:40;;;;;;;11.45;4.22;;;;;;;;;;5032064;28;20067;-71
2021/12/08 11:26:27;;;;;;;5.57;3.05;;;;;;;;;;5051279;28;20384;-72
2021/12/08 11:28:59;;;;;;;8.00;3.97;;;;;;;;;;5072920;28;20041;-71
2021/12/08 11:31:35;;;;;;;7.15;3.35;;;;;;;;;;5026178;28;20056;-71
2021/12/08 11:34:09;;;;;;;6.32;2.55;;;;;;;;;;5046781;28;20084;-71
2021/12/08 11:36:45;;;;;;;9.65;3.97;;;;;;;;;;5053044;28;20060;-74
2021/12/08 11:39:16;;;;;;;15.77;4.53;;;;;;;;;;5044784;28;20049;-71
2021/12/08 11:41:48;;;;;;;7.50;4.37;;;;;;;;;;5049499;28;20128;-72
2021/12/08 11:44:19;;;;;;;7.38;3.25;;;;;;;;;;5043730;28;20060;-72
2021/12/08 11:47:01;;;;;;;10.10;4.20;;;;;;;;;;5044068;28;20057;-75
2021/12/08 11:49:30;;;;;;;9.13;4.25;;;;;;;;;;5059587;28;20051;-72
2021/12/08 11:52:02;;;;;;;8.77;3.25;;;;;;;;;;5064634;28;20045;-72
2021/12/08 11:54:38;;;;;;;12.53;4.10;;;;;;;;;;5030873;28;20049;-72
2021/12/08 11:57:11;;;;;;;9.65;4.13;;;;;;;;;;5046084;28;20142;-72
2021/12/08 11:59:50;;;;;;;8.25;4.00;;;;;;;;;;5051328;28;20044;-72
2021/12/08 12:02:21;;;;;;;8.73;3.90;;;;;;;;;;5070925;28;20056;-71
2021/12/08 12:04:50;;;;;;;8.10;3.72;;;;;;;;;;5071688;28;20079;-71
2021/12/08 12:07:19;;;;;;;9.00;4.30;;;;;;;;;;5065679;28;20076;-71
2021/12/08 12:09:49;;;;;;;6.60;3.67;;;;;;;;;;5047805;28;20048;-71
2021/12/08 12:12:19;;;;;;;18.65;3.97;;;;;;;;;;5054982;28;20406;-71
2021/12/08 12:14:49;;;;;;;8.77;4.07;;;;;;;;;;5033995;28;20049;-71
2021/12/08 12:17:18;;;;;;;10.75;4.60;;;;;;;;;;5049640;28;20408;-72
2021/12/08 12:19:57;;;;;;;9.87;3.80;;;;;;;;;;5041263;28;20124;-71
2021/12/08 12:22:40;;;;;;;9.23;3.83;;;;;;;;;;5050053;28;20053;-71
2021/12/08 12:25:39;;;;;;;6.50;3.17;;;;;;;;;;5048037;28;20483;-72
2021/12/08 12:28:16;;;;;;;11.10;4.88;;;;;;;;;;5053918;28;20044;-71
2021/12/08 12:30:50;;;;;;;11.77;4.90;;;;;;;;;;5049880;28;20419;-71
2021/12/08 12:33:20;;;;;;;8.23;3.80;;;;;;;;;;5054750;28;20052;-71
2021/12/08 12:35:50;;;;;;;12.82;5.15;;;;;;;;;;5053577;28;20083;-71
2021/12/08 12:38:32;;;;;;;9.98;4.13;;;;;;;;;;5032586;28;20049;-71
2021/12/08 12:41:07;;;;;;;11.65;4.78;;;;;;;;;;5051756;28;20052;-71
2021/12/08 12:43:38;;;;;;;14.07;5.32;;;;;;;;;;5051723;28;20467;-71
2021/12/08 12:46:14;;;;;;;11.77;4.77;;;;;;;;;;5069164;28;20052;-71
2021/12/08 12:48:50;;;;;;;12.10;4.90;;;;;;;;;;5052969;28;20053;-71
2021/12/08 12:51:26;;;;;;;8.43;4.57;;;;;;;;;;5052977;28;20057;-71
2021/12/08 12:53:58;;;;;;;12.45;5.35;;;;;;;;;;5051250;28;20047;-71
2021/12/08 12:56:45;;;;;;;11.07;5.05;;;;;;;;;;5053775;28;20090;-71
2021/12/08 12:59:17;;;;;;;9.37;4.17;;;;;;;;;;5053277;28;20491;-71
2021/12/08 13:02:04;;;;;;;11.13;4.63;;;;;;;;;;5052131;28;20072;-71
2021/12/08 13:04:35;;;;;;;10.93;5.32;;;;;;;;;;5034561;28;20374;-71
2021/12/08 13:07:05;;;;;;;12.77;5.25;;;;;;;;;;5053548;28;20410;-71
2021/12/08 13:09:41;;;;;;;8.68;4.38;;;;;;;;;;5053607;28;20080;-71
2021/12/08 13:12:11;;;;;;;15.50;5.20;;;;;;;;;;5030458;28;20045;-71
2021/12/08 13:14:45;;;;;;;11.23;4.65;;;;;;;;;;5045388;28;20044;-71
2021/12/08 13:17:17;;;;;;;9.57;4.63;;;;;;;;;;5067211;28;20407;-71
2021/12/08 13:19:48;;;;;;;11.93;5.05;;;;;;;;;;5056414;28;20060;-71
2021/12/08 13:22:36;;;;;;;8.40;4.53;;;;;;;;;;5055874;28;20057;-71
2021/12/08 13:25:05;;;;;;;15.17;4.17;;;;;;;;;;5040513;28;20085;-72
2021/12/08 13:27:35;;;;;;;9.52;4.80;;;;;;;;;;5053619;28;20118;-71
2021/12/08 13:30:30;;;;;;;10.82;3.50;;;;;;;;;;5040545;28;20044;-71
2021/12/08 13:33:08;;;;;;;9.57;4.70;;;;;;;;;;5038419;28;20041;-71
2021/12/08 13:35:38;;;;;;;10.35;4.82;;;;;;;;;;5053362;28;20076;-72
2021/12/08 13:38:07;;;;;;;7.40;3.43;;;;;;;;;;5051668;28;20041;-72
2021/12/08 13:41:01;;;;;;;11.90;4.28;;;;;;;;;;5056521;28;20044;-72
2021/12/08 13:43:34;;;;;;;10.20;4.38;;;;;;;;;;5056925;28;20053;-72
2021/12/08 13:46:03;;;;;;;11.63;4.35;;;;;;;;;;5059151;28;20071;-72
2021/12/08 13:49:15;;;;;;;10.80;5.47;;;;;;;;;;5055005;28;20183;-72
2021/12/08 13:52:00;;;;;;;10.00;5.10;;;;;;;;;;5055326;28;20048;-72
2021/12/08 13:54:30;;;;;;;9.55;4.80;;;;;;;;;;5050097;28;20052;-72
2021/12/08 13:56:59;;;;;;;13.05;4.45;;;;;;;;;;5053306;28;20136;-72
2021/12/08 13:59:46;;;;;;;7.18;4.25;;;;;;;;;;5050321;28;20360;-72
2021/12/08 14:02:22;;;;;;;19.45;4.95;;;;;;;;;;5053629;28;20537;-72
2021/12/08 14:04:58;;;;;;;7.63;4.10;;;;;;;;;;5025130;28;20041;-71
2021/12/08 14:07:28;;;;;;;9.55;4.80;;;;;;;;;;5035691;28;20049;-71
2021/12/08 14:09:57;;;;;;;10.05;4.90;;;;;;;;;;5036107;28;20049;-71
2021/12/08 14:12:40;;;;;;;9.18;4.30;;;;;;;;;;5051288;28;20459;-72
2021/12/08 14:15:09;;;;;;;7.97;3.85;;;;;;;;;;5047102;28;20052;-72
2021/12/08 14:17:39;;;;;;;9.63;4.20;;;;;;;;;;5055013;28;20041;-72
2021/12/08 14:20:24;;;;;;;10.02;4.75;;;;;;;;;;5055593;28;20067;-72
2021/12/08 14:22:54;;;;;;;10.13;4.20;;;;;;;;;;5052253;28;20236;-72
2021/12/08 14:25:37;;;;;;;9.43;4.88;;;;;;;;;;5051345;28;20077;-72
2021/12/08 14:28:25;;;;;;;10.13;4.50;;;;;;;;;;5055481;28;20078;-72
2021/12/08 14:30:55;;;;;;;7.57;3.90;;;;;;;;;;5049992;28;20544;-71
2021/12/08 14:33:25;;;;;;;8.77;3.95;;;;;;;;;;5050850;28;20048;-72
2021/12/08 14:35:57;;;;;;;7.57;4.28;;;;;;;;;;5055337;28;20048;-71
2021/12/08 14:38:26;;;;;;;9.43;4.68;;;;;;;;;;5037704;28;20045;-71
2021/12/08 14:40:56;;;;;;;10.95;4.78;;;;;;;;;;5056825;28;20052;-72
2021/12/08 14:43:34;;;;;;;10.37;4.07;;;;;;;;;;5068968;28;20140;-72
2021/12/08 14:46:15;;;;;;;10.98;4.47;;;;;;;;;;5052985;28;20099;-72
2021/12/08 14:48:56;;;;;;;6.60;3.25;;;;;;;;;;5045978;28;20240;-72
2021/12/08 14:51:28;;;;;;;9.77;4.43;;;;;;;;;;5053290;28;20045;-71
2021/12/08 14:54:09;;;;;;;10.00;4.25;;;;;;;;;;5054248;28;20049;-71
2021/12/08 14:56:38;;;;;;;6.40;3.70;;;;;;;;;;5034816;28;20057;-72
2021/12/08 14:59:06;;;;;;;7.82;3.22;;;;;;;;;;5054582;28;20509;-72
2021/12/08 15:01:35;;;;;;;11.23;4.55;;;;;;;;;;5043169;28;20067;-72
2021/12/08 15:04:04;;;;;;;12.77;4.68;;;;;;;;;;5045306;28;20084;-71
2021/12/08 15:06:33;;;;;;;5.75;3.58;;;;;;;;;;5049717;28;20049;-71
2021/12/08 15:09:02;;;;;;;7.60;3.80;;;;;;;;;;5052674;28;20045;-71
2021/12/08 15:11:32;;;;;;;9.95;3.83;;;;;;;;;;5047361;28;20057;-71
2021/12/08 15:14:01;;;;;;;6.60;3.90;;;;;;;;;;5060647;28;20051;-72
2021/12/08 15:16:31;;;;;;;7.13;3.28;;;;;;;;;;5042171;28;20478;-71
2021/12/08 15:19:11;;;;;;;7.18;3.55;;;;;;;;;;5030103;28;20041;-76
2021/12/08 15:24:34;;;;;;;5.60;3.22;;;;;;;;;;5048965;28;20105;-75
2021/12/08 15:27:11;;;;;;;5.78;2.40;;;;;;;;;;5045418;28;20084;-78
2021/12/08 15:29:41;;;;;;;9.93;4.07;;;;;;;;;;5052316;28;20048;-77
2021/12/08 15:32:14;;;;;;;6.80;3.15;;;;;;;;;;5057041;28;20045;-72
2021/12/08 15:34:44;;;;;;;7.53;3.50;;;;;;;;;;5060314;28;20426;-75
2021/12/08 15:37:16;;;;;;;7.90;3.35;;;;;;;;;;5047443;28;20122;-76
2021/12/08 15:39:52;;;;;;;6.40;2.83;;;;;;;;;;5050546;28;20506;-75
2021/12/08 15:42:21;;;;;;;7.05;3.22;;;;;;;;;;5059952;28;20056;-75
2021/12/08 15:44:54;;;;;;;4.55;2.38;;;;;;;;;;5053878;28;20049;-75
2021/12/08 15:47:23;;;;;;;4.80;2.57;;;;;;;;;;5053025;28;20329;-76
2021/12/08 15:49:52;;;;;;;6.60;2.72;;;;;;;;;;5055763;28;20078;-71
2021/12/08 15:52:24;;;;;;;6.40;3.30;;;;;;;;;;5059793;28;20047;-71
2021/12/08 15:55:06;;;;;;;5.35;3.00;;;;;;;;;;5049813;28;20408;-71